Time;durP1;ratioP1;P1;durP2;ratioP2;P2;SDS_P1;SDS_P2;PMS_P1;PMS_P2;Temp;Humidity;BMP_temperature;BMP_pressure;BME280_temperature;BME280_humidity;BME280_pressure;Samples;Min_cycle;Max_cycle;Signal;HPM_P1;HPM_P2
2021/09/07 00:02:04;;;;;;;16.35;9.55;;;19.70;90.50;;;;;;5022761;28;20142;-67
2021/09/07 00:04:30;;;;;;;15.55;9.82;;;19.70;90.50;;;;;;5030256;28;20052;-67
2021/09/07 00:06:56;;;;;;;15.65;9.73;;;19.70;90.50;;;;;;5032375;28;20030;-67
2021/09/07 00:09:22;;;;;;;15.38;9.55;;;19.70;90.50;;;;;;5031403;28;20021;-67
2021/09/07 00:11:47;;;;;;;12.70;8.90;;;19.70;90.50;;;;;;5029258;28;20049;-67
2021/09/07 00:14:13;;;;;;;13.25;8.93;;;19.70;90.60;;;;;;5019495;28;20126;-67
2021/09/07 00:16:38;;;;;;;13.82;9.82;;;19.70;90.60;;;;;;5014923;28;20022;-67
2021/09/07 00:19:04;;;;;;;14.57;10.30;;;19.70;90.60;;;;;;5030237;28;20504;-67
2021/09/07 00:21:29;;;;;;;12.05;9.05;;;19.70;90.50;;;;;;5029835;28;20450;-67
2021/09/07 00:23:55;;;;;;;14.25;9.30;;;19.70;90.60;;;;;;5033541;28;20033;-67
2021/09/07 00:26:20;;;;;;;13.50;9.20;;;19.70;90.60;;;;;;5030797;28;20033;-68
2021/09/07 00:28:46;;;;;;;14.88;9.52;;;19.70;90.70;;;;;;5051328;28;20017;-66
2021/09/07 00:31:11;;;;;;;13.20;9.77;;;19.70;90.70;;;;;;5038083;28;20120;-67
2021/09/07 00:33:37;;;;;;;16.05;9.05;;;19.70;90.70;;;;;;5032017;28;20026;-67
2021/09/07 00:36:03;;;;;;;16.20;9.38;;;19.60;90.80;;;;;;5034479;28;20033;-67
2021/09/07 00:38:28;;;;;;;13.90;9.63;;;19.60;90.80;;;;;;5034253;28;20183;-67
2021/09/07 00:40:54;;;;;;;13.57;9.38;;;19.60;90.80;;;;;;5035214;28;20537;-67
2021/09/07 00:43:19;;;;;;;14.63;8.98;;;19.60;90.80;;;;;;5033678;28;20029;-67
2021/09/07 00:45:45;;;;;;;13.18;9.02;;;19.60;90.90;;;;;;5034809;28;20482;-67
2021/09/07 00:48:11;;;;;;;12.65;8.70;;;19.60;90.90;;;;;;5019213;28;20066;-67
2021/09/07 00:50:36;;;;;;;14.52;8.93;;;19.60;90.90;;;;;;5014797;28;20627;-67
2021/09/07 00:53:02;;;;;;;15.30;9.30;;;19.60;91.00;;;;;;5041020;28;20082;-67
2021/09/07 00:55:29;;;;;;;12.85;9.18;;;19.60;91.00;;;;;;5054567;28;20115;-67
2021/09/07 00:57:56;;;;;;;13.85;9.68;;;19.60;91.10;;;;;;5036849;28;20030;-67
2021/09/07 01:00:22;;;;;;;13.10;9.30;;;19.60;91.10;;;;;;5034929;28;20498;-67
2021/09/07 01:02:48;;;;;;;12.88;8.80;;;19.60;91.10;;;;;;5033296;28;20064;-67
2021/09/07 01:05:14;;;;;;;12.25;9.02;;;19.60;91.10;;;;;;5033874;28;20033;-67
2021/09/07 01:07:40;;;;;;;14.50;9.35;;;19.60;91.10;;;;;;5045829;28;20036;-67
2021/09/07 01:10:07;;;;;;;14.25;9.07;;;19.60;91.20;;;;;;5034190;28;20026;-67
2021/09/07 01:12:33;;;;;;;11.52;8.32;;;19.50;91.10;;;;;;5039605;28;20032;-67
2021/09/07 01:14:58;;;;;;;12.85;8.68;;;19.60;91.30;;;;;;5012156;28;20073;-67
2021/09/07 01:17:24;;;;;;;12.98;9.35;;;19.50;91.20;;;;;;5027586;28;20486;-67
2021/09/07 01:19:50;;;;;;;14.00;8.70;;;19.50;91.30;;;;;;5052877;28;20082;-67
2021/09/07 01:22:18;;;;;;;13.20;8.75;;;19.50;91.40;;;;;;5046072;28;20017;-67
2021/09/07 01:24:44;;;;;;;12.98;8.48;;;19.40;91.40;;;;;;5034296;28;20132;-67
2021/09/07 01:27:10;;;;;;;12.48;9.15;;;19.40;91.40;;;;;;5025779;28;20029;-67
2021/09/07 01:29:38;;;;;;;13.18;9.52;;;19.40;91.40;;;;;;5034297;28;20025;-67
2021/09/07 01:32:05;;;;;;;13.38;9.35;;;19.40;91.40;;;;;;5034712;28;20029;-67
2021/09/07 01:34:31;;;;;;;12.73;9.02;;;19.30;91.50;;;;;;5051080;28;20112;-67
2021/09/07 01:36:57;;;;;;;13.77;8.98;;;19.30;91.70;;;;;;5046673;28;20136;-66
2021/09/07 01:39:24;;;;;;;14.35;9.25;;;19.20;91.70;;;;;;5034260;28;20053;-67
2021/09/07 01:41:50;;;;;;;17.02;10.05;;;19.20;91.70;;;;;;5031786;28;20022;-67
2021/09/07 01:44:17;;;;;;;14.70;10.75;;;19.20;91.80;;;;;;5033860;28;20029;-67
2021/09/07 01:46:42;;;;;;;14.52;9.40;;;19.10;91.90;;;;;;5031599;28;20116;-67
2021/09/07 01:49:11;;;;;;;16.42;10.57;;;19.10;92.00;;;;;;5033662;28;20112;-67
2021/09/07 01:51:41;;;;;;;13.32;9.27;;;19.00;92.00;;;;;;5032196;28;20029;-67
2021/09/07 01:54:07;;;;;;;14.32;9.13;;;19.00;92.20;;;;;;5033914;28;20037;-67
2021/09/07 01:56:33;;;;;;;15.10;10.00;;;19.00;92.20;;;;;;5031844;28;20022;-67
2021/09/07 01:58:59;;;;;;;13.57;9.05;;;19.00;92.30;;;;;;5028851;28;20359;-67
2021/09/07 02:01:24;;;;;;;15.20;9.88;;;18.90;92.50;;;;;;5029268;28;20036;-67
2021/09/07 02:03:50;;;;;;;16.08;9.48;;;18.80;92.40;;;;;;5029731;28;20121;-67
2021/09/07 02:06:15;;;;;;;15.40;9.77;;;18.80;92.50;;;;;;5033020;28;20033;-67
2021/09/07 02:08:41;;;;;;;15.43;9.82;;;18.80;92.60;;;;;;5032964;28;20120;-67
2021/09/07 02:11:07;;;;;;;12.48;8.75;;;18.80;92.60;;;;;;5029511;28;20038;-67
2021/09/07 02:13:32;;;;;;;16.20;9.85;;;18.80;92.60;;;;;;5030424;28;20506;-67
2021/09/07 02:15:57;;;;;;;15.55;9.35;;;18.80;92.70;;;;;;5043310;28;20025;-67
2021/09/07 02:18:23;;;;;;;16.65;10.32;;;18.80;92.70;;;;;;5033368;28;20568;-68
2021/09/07 02:20:48;;;;;;;14.60;9.57;;;18.80;92.80;;;;;;5030907;28;20044;-67
2021/09/07 02:23:14;;;;;;;16.75;9.77;;;18.80;92.90;;;;;;5032651;28;20530;-67
2021/09/07 02:25:39;;;;;;;15.15;10.02;;;18.70;92.90;;;;;;5041848;28;20107;-67
2021/09/07 02:28:05;;;;;;;13.90;9.68;;;18.70;93.00;;;;;;5037135;28;20021;-68
2021/09/07 02:30:30;;;;;;;16.17;9.90;;;18.70;93.10;;;;;;5032131;28;20381;-68
2021/09/07 02:32:56;;;;;;;19.08;10.10;;;18.70;93.10;;;;;;5031924;28;20025;-68
2021/09/07 02:35:22;;;;;;;16.25;9.98;;;18.60;93.20;;;;;;5031387;28;20025;-68
2021/09/07 02:37:49;;;;;;;16.38;10.23;;;18.60;93.30;;;;;;5032460;28;20094;-68
2021/09/07 02:40:14;;;;;;;16.45;10.07;;;18.60;93.40;;;;;;5037117;28;20082;-67
2021/09/07 02:42:40;;;;;;;15.45;10.20;;;18.50;93.50;;;;;;5052751;28;20021;-68
2021/09/07 02:45:06;;;;;;;23.35;10.40;;;18.50;93.50;;;;;;5043745;28;20037;-68
2021/09/07 02:47:31;;;;;;;13.77;9.40;;;18.50;93.60;;;;;;5031889;28;20034;-68
2021/09/07 02:49:57;;;;;;;14.63;9.95;;;18.50;93.70;;;;;;5031133;28;20056;-68
2021/09/07 02:52:22;;;;;;;14.98;9.75;;;18.40;93.80;;;;;;5032757;28;20021;-68
2021/09/07 02:54:48;;;;;;;18.10;10.70;;;18.40;93.90;;;;;;5030734;28;20045;-68
2021/09/07 02:57:13;;;;;;;14.50;9.68;;;18.40;93.90;;;;;;5031551;28;20033;-68
2021/09/07 02:59:39;;;;;;;16.85;11.05;;;18.30;94.00;;;;;;5032397;28;20112;-67
2021/09/07 03:02:04;;;;;;;15.05;9.88;;;18.30;94.10;;;;;;5028803;28;20028;-68
2021/09/07 03:04:30;;;;;;;15.05;10.05;;;18.30;94.10;;;;;;5040079;28;20053;-68
2021/09/07 03:06:55;;;;;;;16.77;10.82;;;18.30;94.20;;;;;;5031086;28;20076;-68
2021/09/07 03:09:21;;;;;;;17.60;10.32;;;18.30;94.20;;;;;;5032289;28;20044;-68
2021/09/07 03:11:46;;;;;;;16.58;10.80;;;18.20;94.30;;;;;;5032922;28;20036;-68
2021/09/07 03:14:12;;;;;;;15.95;9.95;;;18.20;94.40;;;;;;5042584;28;20025;-68
2021/09/07 03:16:37;;;;;;;15.93;9.23;;;18.20;94.50;;;;;;5018378;28;20034;-68
2021/09/07 03:19:04;;;;;;;17.67;11.15;;;18.10;94.50;;;;;;5011508;28;20101;-67
2021/09/07 03:21:30;;;;;;;16.85;10.68;;;18.10;94.50;;;;;;5027492;28;20034;-68
2021/09/07 03:23:55;;;;;;;15.45;9.75;;;18.10;94.60;;;;;;5048601;28;20478;-68
2021/09/07 03:26:21;;;;;;;18.83;10.70;;;18.10;94.90;;;;;;5028403;28;20048;-68
2021/09/07 03:28:47;;;;;;;17.15;10.98;;;18.10;94.80;;;;;;5012215;28;20033;-68
2021/09/07 03:31:12;;;;;;;15.55;10.63;;;18.10;94.90;;;;;;5028221;28;20155;-68
2021/09/07 03:33:38;;;;;;;14.80;9.43;;;18.00;94.90;;;;;;5031263;28;20021;-68
2021/09/07 03:36:04;;;;;;;15.85;9.35;;;18.00;95.00;;;;;;5034858;28;20612;-68
2021/09/07 03:38:31;;;;;;;15.10;9.73;;;18.00;95.10;;;;;;5031945;28;20470;-68
2021/09/07 03:40:57;;;;;;;16.52;11.25;;;18.00;95.10;;;;;;5030810;28;20045;-68
2021/09/07 03:43:22;;;;;;;16.75;11.90;;;18.00;95.10;;;;;;5048671;28;20036;-68
2021/09/07 03:45:48;;;;;;;17.17;10.70;;;17.90;95.10;;;;;;5041023;28;20386;-68
2021/09/07 03:48:13;;;;;;;16.90;10.60;;;17.90;95.30;;;;;;5012149;28;20120;-68
2021/09/07 03:50:39;;;;;;;18.58;9.82;;;17.90;95.30;;;;;;5039337;28;20029;-68
2021/09/07 03:53:04;;;;;;;15.02;10.35;;;17.90;95.40;;;;;;5031677;28;20037;-68
2021/09/07 03:55:30;;;;;;;21.10;11.60;;;17.90;95.40;;;;;;5030178;28;20045;-67
2021/09/07 03:57:55;;;;;;;18.33;11.10;;;17.80;95.50;;;;;;5031324;28;20430;-67
2021/09/07 04:00:21;;;;;;;19.20;12.40;;;17.70;95.50;;;;;;5031675;28;20478;-68
2021/09/07 04:02:46;;;;;;;17.48;11.23;;;17.70;95.60;;;;;;5044877;28;20054;-68
2021/09/07 04:05:12;;;;;;;17.55;11.48;;;17.70;95.60;;;;;;5034154;28;20033;-68
2021/09/07 04:07:38;;;;;;;19.38;11.38;;;17.60;95.70;;;;;;5050988;28;20025;-68
2021/09/07 04:10:04;;;;;;;19.77;11.52;;;17.70;95.80;;;;;;5038642;28;20053;-68
2021/09/07 04:12:29;;;;;;;19.38;11.45;;;17.60;95.80;;;;;;5042917;28;20385;-68
2021/09/07 04:14:55;;;;;;;18.15;11.07;;;17.60;95.90;;;;;;5037994;28;20032;-68
2021/09/07 04:17:21;;;;;;;19.67;12.10;;;17.60;95.90;;;;;;5040883;28;20120;-68
2021/09/07 04:19:47;;;;;;;17.83;12.52;;;17.60;96.00;;;;;;5035344;28;20369;-68
2021/09/07 04:22:12;;;;;;;18.75;11.93;;;17.50;96.10;;;;;;5038104;28;20029;-68
2021/09/07 04:24:38;;;;;;;18.58;12.73;;;17.50;96.10;;;;;;5036947;28;20067;-68
2021/09/07 04:27:03;;;;;;;19.65;11.65;;;17.50;96.20;;;;;;5057797;28;20060;-68
2021/09/07 04:29:29;;;;;;;17.83;12.52;;;17.50;96.30;;;;;;5044974;28;20072;-68
2021/09/07 04:31:54;;;;;;;20.55;11.93;;;17.50;96.30;;;;;;5037672;28;20036;-68
2021/09/07 04:34:20;;;;;;;17.73;11.95;;;17.50;96.30;;;;;;5036712;28;20482;-68
2021/09/07 04:36:46;;;;;;;17.30;11.40;;;17.40;96.40;;;;;;5036760;28;20029;-68
2021/09/07 04:39:11;;;;;;;18.38;11.73;;;17.50;96.40;;;;;;5029149;28;20030;-68
2021/09/07 04:41:37;;;;;;;17.30;12.35;;;17.40;96.40;;;;;;5026132;28;20030;-68
2021/09/07 04:44:02;;;;;;;18.02;11.38;;;17.40;96.40;;;;;;5033330;28;20109;-68
2021/09/07 04:46:28;;;;;;;19.88;13.38;;;17.40;96.50;;;;;;5036522;28;20041;-68
2021/09/07 04:48:56;;;;;;;19.38;11.95;;;17.40;96.60;;;;;;5038809;28;20079;-68
2021/09/07 04:51:23;;;;;;;19.98;12.02;;;17.40;96.60;;;;;;5051813;28;20025;-68
2021/09/07 04:53:49;;;;;;;22.38;13.77;;;17.30;96.70;;;;;;5053077;28;20596;-69
2021/09/07 04:56:14;;;;;;;18.05;12.05;;;17.30;96.70;;;;;;5036852;28;20029;-69
2021/09/07 04:58:40;;;;;;;20.13;12.20;;;17.30;96.80;;;;;;5036406;28;20036;-69
2021/09/07 05:01:06;;;;;;;15.63;11.55;;;17.40;96.80;;;;;;5039351;28;20021;-69
2021/09/07 05:03:31;;;;;;;19.30;12.52;;;17.40;96.80;;;;;;5037643;28;20417;-69
2021/09/07 05:05:57;;;;;;;20.45;13.38;;;17.40;96.90;;;;;;5034433;28;20052;-68
2021/09/07 05:08:22;;;;;;;19.23;12.48;;;17.50;97.00;;;;;;5036068;28;20037;-68
2021/09/07 05:10:48;;;;;;;18.30;12.15;;;17.50;97.00;;;;;;5045829;28;20032;-69
2021/09/07 05:13:13;;;;;;;17.50;12.25;;;17.60;97.00;;;;;;5046117;28;20069;-68
2021/09/07 05:15:39;;;;;;;17.40;11.80;;;17.60;97.00;;;;;;5039116;28;20032;-68
2021/09/07 05:18:04;;;;;;;19.02;11.00;;;17.70;97.00;;;;;;5036802;28;20021;-68
2021/09/07 05:20:30;;;;;;;18.20;13.00;;;17.70;97.00;;;;;;5033677;28;20033;-68
2021/09/07 05:22:55;;;;;;;19.10;12.13;;;17.80;97.00;;;;;;5033882;28;20474;-68
2021/09/07 05:25:21;;;;;;;21.73;12.45;;;17.90;96.80;;;;;;5032251;28;20508;-68
2021/09/07 05:27:46;;;;;;;21.33;12.77;;;17.90;96.70;;;;;;5049117;28;20034;-68
2021/09/07 05:30:12;;;;;;;17.13;11.93;;;17.90;96.80;;;;;;5030283;28;20533;-68
2021/09/07 05:32:38;;;;;;;18.48;12.75;;;17.90;96.80;;;;;;5033667;28;20129;-68
2021/09/07 05:35:05;;;;;;;20.20;11.35;;;18.00;96.80;;;;;;5032386;28;20020;-68
2021/09/07 05:37:31;;;;;;;19.60;11.75;;;18.00;96.80;;;;;;5033261;28;20037;-68
2021/09/07 05:39:56;;;;;;;17.05;10.80;;;18.00;96.70;;;;;;5033860;28;20025;-68
2021/09/07 05:42:22;;;;;;;17.23;11.68;;;18.10;96.70;;;;;;5042336;28;20108;-69
2021/09/07 05:44:47;;;;;;;16.27;10.55;;;18.20;96.60;;;;;;5033794;28;20378;-69
2021/09/07 05:47:13;;;;;;;16.95;11.35;;;18.20;96.60;;;;;;5033923;28;20047;-68
2021/09/07 05:49:38;;;;;;;16.67;11.40;;;18.30;96.60;;;;;;5032257;28;20068;-68
2021/09/07 05:52:04;;;;;;;18.13;12.65;;;18.30;96.50;;;;;;5014230;28;20022;-68
2021/09/07 05:54:29;;;;;;;15.85;11.43;;;18.40;96.30;;;;;;5013567;28;20136;-68
2021/09/07 05:56:57;;;;;;;17.77;10.93;;;18.40;96.40;;;;;;5032493;28;20029;-68
2021/09/07 05:59:24;;;;;;;15.23;10.52;;;18.40;96.40;;;;;;5033672;28;20128;-68
2021/09/07 06:01:50;;;;;;;18.48;10.93;;;18.40;96.30;;;;;;5033937;28;20057;-68
2021/09/07 06:04:15;;;;;;;14.80;10.10;;;18.40;96.20;;;;;;5033440;28;20102;-68
2021/09/07 06:06:41;;;;;;;15.07;10.50;;;18.40;96.20;;;;;;5031780;28;20033;-68
2021/09/07 06:09:06;;;;;;;18.90;10.60;;;18.50;96.10;;;;;;5031880;28;20033;-68
2021/09/07 06:11:32;;;;;;;12.93;9.80;;;18.50;96.00;;;;;;5048224;28;20033;-68
2021/09/07 06:13:57;;;;;;;14.18;10.55;;;18.50;96.00;;;;;;5039139;28;20027;-68
2021/09/07 06:16:23;;;;;;;17.55;10.77;;;18.60;96.00;;;;;;5032715;28;20028;-68
2021/09/07 06:18:49;;;;;;;14.85;9.57;;;18.60;95.90;;;;;;5033080;28;20091;-68
2021/09/07 06:21:14;;;;;;;16.50;10.98;;;18.60;95.90;;;;;;5032625;28;20017;-68
2021/09/07 06:23:40;;;;;;;18.05;10.85;;;18.60;95.70;;;;;;5032819;28;20025;-68
2021/09/07 06:26:05;;;;;;;15.70;10.85;;;18.60;95.60;;;;;;5031533;28;20026;-69
2021/09/07 06:28:31;;;;;;;17.35;10.05;;;18.60;95.70;;;;;;5033269;28;20052;-69
2021/09/07 06:30:56;;;;;;;13.18;9.40;;;18.70;95.80;;;;;;5031565;28;20107;-68
2021/09/07 06:33:22;;;;;;;18.20;10.35;;;18.80;95.80;;;;;;5033232;28;20032;-68
2021/09/07 06:35:48;;;;;;;15.98;9.98;;;18.90;95.60;;;;;;5029739;28;20018;-70
2021/09/07 06:38:13;;;;;;;14.57;9.20;;;18.90;95.60;;;;;;5038914;28;20029;-70
2021/09/07 06:40:40;;;;;;;15.57;9.60;;;19.00;95.40;;;;;;5036942;28;20538;-71
2021/09/07 06:43:06;;;;;;;14.77;8.77;;;19.00;95.50;;;;;;5034465;28;20033;-69
2021/09/07 06:45:32;;;;;;;18.20;10.27;;;19.10;95.20;;;;;;5043488;28;20079;-70
2021/09/07 06:47:57;;;;;;;16.50;9.75;;;19.10;95.30;;;;;;5035891;28;20461;-69
2021/09/07 06:50:23;;;;;;;15.13;9.43;;;19.10;95.20;;;;;;5036131;28;20044;-69
2021/09/07 06:52:48;;;;;;;12.32;8.90;;;19.10;95.20;;;;;;5031835;28;20059;-69
2021/09/07 06:55:14;;;;;;;14.82;10.20;;;19.20;95.00;;;;;;5044862;28;20049;-69
2021/09/07 06:57:39;;;;;;;14.48;9.02;;;19.10;94.80;;;;;;5041160;28;20075;-69
2021/09/07 07:00:05;;;;;;;16.13;9.98;;;19.10;95.00;;;;;;5036667;28;20039;-69
2021/09/07 07:02:31;;;;;;;13.68;9.88;;;19.20;95.00;;;;;;5033941;28;20036;-69
2021/09/07 07:04:59;;;;;;;13.65;9.13;;;19.20;94.90;;;;;;5036290;28;20033;-69
2021/09/07 07:07:24;;;;;;;12.85;8.93;;;19.20;94.90;;;;;;5045241;28;20051;-69
2021/09/07 07:09:51;;;;;;;16.27;10.93;;;19.20;94.80;;;;;;5030261;28;20492;-69
2021/09/07 07:12:16;;;;;;;14.27;8.27;;;19.30;94.70;;;;;;5029928;28;20040;-69
2021/09/07 07:14:42;;;;;;;15.90;9.77;;;19.20;94.70;;;;;;5036445;28;20022;-69
2021/09/07 07:17:07;;;;;;;15.82;8.73;;;19.20;94.60;;;;;;5037559;28;20021;-69
2021/09/07 07:19:33;;;;;;;15.25;9.48;;;19.30;94.90;;;;;;5029455;28;20533;-69
2021/09/07 07:21:58;;;;;;;14.25;8.38;;;19.30;94.70;;;;;;5033183;28;20036;-70
2021/09/07 07:24:24;;;;;;;14.68;8.93;;;19.30;94.60;;;;;;5037127;28;20024;-70
2021/09/07 07:26:49;;;;;;;16.77;9.65;;;19.40;94.60;;;;;;5034274;28;20111;-69
2021/09/07 07:29:16;;;;;;;13.73;7.80;;;19.40;94.50;;;;;;5039535;28;20545;-70
2021/09/07 07:31:42;;;;;;;12.48;8.02;;;19.40;94.40;;;;;;5037145;28;20064;-70
2021/09/07 07:34:08;;;;;;;13.60;7.75;;;19.40;94.30;;;;;;5041481;28;20408;-69
2021/09/07 07:36:34;;;;;;;11.85;7.57;;;19.40;94.30;;;;;;5026595;28;20030;-70
2021/09/07 07:39:00;;;;;;;13.43;7.82;;;19.50;94.30;;;;;;5026138;28;20051;-69
2021/09/07 07:41:26;;;;;;;13.88;8.27;;;19.60;94.20;;;;;;5037716;28;20034;-71
2021/09/07 07:43:51;;;;;;;15.55;7.47;;;19.60;94.10;;;;;;5044602;28;20830;-69
2021/09/07 07:46:17;;;;;;;10.77;7.57;;;19.60;94.00;;;;;;5031654;28;20505;-68
2021/09/07 07:48:42;;;;;;;12.68;7.05;;;19.70;93.90;;;;;;5024419;28;20018;-69
2021/09/07 07:51:09;;;;;;;12.60;6.78;;;19.70;93.90;;;;;;5035059;28;20039;-69
2021/09/07 07:53:35;;;;;;;10.82;7.03;;;19.70;93.80;;;;;;5039626;28;20045;-68
2021/09/07 07:56:02;;;;;;;10.20;6.43;;;19.70;93.60;;;;;;5032448;28;20037;-69
2021/09/07 07:58:27;;;;;;;13.48;7.88;;;19.70;93.60;;;;;;5049149;28;20029;-69
2021/09/07 08:00:53;;;;;;;13.10;7.63;;;19.80;93.50;;;;;;5031259;28;20410;-68
2021/09/07 08:03:18;;;;;;;11.55;7.50;;;19.80;93.50;;;;;;5033413;28;20032;-69
2021/09/07 08:05:44;;;;;;;14.07;8.40;;;19.80;93.50;;;;;;5031151;28;20481;-70
2021/09/07 08:08:10;;;;;;;16.70;8.82;;;19.80;93.50;;;;;;5037946;28;20013;-70
2021/09/07 08:10:35;;;;;;;13.32;8.15;;;19.90;93.50;;;;;;5026778;28;20375;-70
2021/09/07 08:13:01;;;;;;;15.20;8.48;;;19.90;93.50;;;;;;5029511;28;20029;-70
2021/09/07 08:15:27;;;;;;;13.38;7.70;;;19.90;93.50;;;;;;5034886;28;20086;-70
2021/09/07 08:17:53;;;;;;;14.70;8.68;;;20.00;93.50;;;;;;5036803;28;20084;-70
2021/09/07 08:20:18;;;;;;;13.93;8.15;;;20.10;93.50;;;;;;5042320;28;20040;-70
2021/09/07 08:22:44;;;;;;;12.95;8.38;;;20.20;93.50;;;;;;5029731;28;20131;-70
2021/09/07 08:25:10;;;;;;;14.43;9.70;;;20.20;93.10;;;;;;5037671;28;20463;-70
2021/09/07 08:27:36;;;;;;;17.55;10.13;;;20.20;92.80;;;;;;5030020;28;20037;-70
2021/09/07 08:30:03;;;;;;;14.85;9.88;;;20.20;92.80;;;;;;5029909;28;20059;-70
2021/09/07 08:32:28;;;;;;;14.80;10.15;;;20.20;92.70;;;;;;5029356;28;20026;-70
2021/09/07 08:34:54;;;;;;;19.33;10.05;;;20.30;92.40;;;;;;5028773;28;20028;-70
2021/09/07 08:37:19;;;;;;;14.73;8.52;;;20.30;92.30;;;;;;5027247;28;20493;-71
2021/09/07 08:39:45;;;;;;;12.20;8.63;;;20.40;92.50;;;;;;5045027;28;20033;-70
2021/09/07 08:42:12;;;;;;;14.77;8.95;;;20.50;92.40;;;;;;5027355;28;20036;-70
2021/09/07 08:44:45;;;;;;;12.20;8.15;;;20.60;92.30;;;;;;5027451;28;20453;-70
2021/09/07 08:47:13;;;;;;;14.20;8.40;;;20.60;92.30;;;;;;5036437;28;20101;-70
2021/09/07 08:49:39;;;;;;;12.35;8.45;;;20.70;92.10;;;;;;5028169;28;20059;-71
2021/09/07 08:52:04;;;;;;;13.75;9.10;;;20.80;91.80;;;;;;5029239;28;20538;-70
2021/09/07 08:54:30;;;;;;;16.15;9.73;;;20.90;91.80;;;;;;5027802;28;20141;-70
2021/09/07 08:56:55;;;;;;;17.48;9.20;;;20.90;91.70;;;;;;5035630;28;20036;-69
2021/09/07 08:59:21;;;;;;;15.73;9.32;;;20.90;91.40;;;;;;5032231;28;20382;-70
2021/09/07 09:01:52;;;;;;;12.82;8.65;;;21.00;91.30;;;;;;5038679;28;20078;-70
2021/09/07 09:04:25;;;;;;;13.98;8.27;;;21.10;91.20;;;;;;5039533;28;20083;-69
2021/09/07 09:06:51;;;;;;;14.43;8.55;;;21.10;91.00;;;;;;5033740;28;20033;-69
2021/09/07 09:09:17;;;;;;;12.45;8.68;;;21.20;90.90;;;;;;5034914;28;20028;-70
2021/09/07 09:11:53;;;;;;;11.70;8.38;;;21.30;90.80;;;;;;5034114;28;20462;-69
2021/09/07 09:14:33;;;;;;;14.50;9.82;;;21.30;90.80;;;;;;5045722;28;20057;-69
2021/09/07 09:17:00;;;;;;;13.63;8.50;;;21.40;90.70;;;;;;5032255;28;20017;-69
2021/09/07 09:19:25;;;;;;;12.80;8.40;;;21.50;90.40;;;;;;5029365;28;20108;-69
2021/09/07 09:21:51;;;;;;;15.05;8.85;;;21.50;90.30;;;;;;5032323;28;20120;-69
2021/09/07 09:24:23;;;;;;;13.00;9.23;;;21.50;90.30;;;;;;5032390;28;20040;-69
2021/09/07 09:26:50;;;;;;;11.25;8.60;;;21.60;90.10;;;;;;5041338;28;20413;-69
2021/09/07 09:29:23;;;;;;;12.88;8.50;;;21.60;90.20;;;;;;5028784;28;20112;-70
2021/09/07 09:31:58;;;;;;;16.85;8.35;;;21.70;90.20;;;;;;5032646;28;20112;-70
2021/09/07 09:34:25;;;;;;;15.63;8.65;;;21.80;90.20;;;;;;5029682;28;20022;-70
2021/09/07 09:37:11;;;;;;;13.98;8.50;;;21.80;90.00;;;;;;5037887;28;20028;-70
2021/09/07 09:39:39;;;;;;;12.93;8.68;;;21.80;88.40;;;;;;5031081;28;20064;-71
2021/09/07 09:42:06;;;;;;;11.45;8.27;;;21.80;88.90;;;;;;5034910;28;20040;-71
2021/09/07 09:44:32;;;;;;;14.07;8.88;;;21.80;89.30;;;;;;5035612;28;21422;-71
2021/09/07 09:46:58;;;;;;;14.02;8.07;;;21.80;88.40;;;;;;5030483;28;20021;-71
2021/09/07 09:49:28;;;;;;;18.13;7.75;;;21.80;88.50;;;;;;5036382;28;20029;-71
2021/09/07 09:52:05;;;;;;;12.38;8.73;;;21.90;88.90;;;;;;5039559;28;20032;-71
2021/09/07 09:54:32;;;;;;;13.10;8.75;;;22.10;87.90;;;;;;5029227;28;20382;-71
2021/09/07 09:57:00;;;;;;;16.42;9.18;;;22.10;87.60;;;;;;5041601;28;20021;-71
2021/09/07 09:59:27;;;;;;;11.13;7.75;;;22.10;87.10;;;;;;5040526;28;20068;-71
2021/09/07 10:01:57;;;;;;;12.57;8.77;;;22.20;87.20;;;;;;5045921;28;20078;-71
2021/09/07 10:04:23;;;;;;;12.30;8.90;;;22.20;85.50;;;;;;5032684;28;20622;-71
2021/09/07 10:06:51;;;;;;;10.45;7.63;;;22.20;85.50;;;;;;5041961;28;20035;-71
2021/09/07 10:09:19;;;;;;;12.13;8.05;;;22.10;85.60;;;;;;5031580;28;20033;-70
2021/09/07 10:12:00;;;;;;;13.93;8.68;;;22.20;86.20;;;;;;5035044;28;20747;-71
2021/09/07 10:14:30;;;;;;;12.35;7.75;;;22.30;87.10;;;;;;5036146;28;20025;-71
2021/09/07 10:20:23;;;;;;;10.27;7.50;;;22.50;86.30;;;;;;5035659;28;20373;-71
2021/09/07 10:25:51;;;;;;;12.68;8.02;;;22.50;84.30;;;;;;5029340;28;20041;-71
2021/09/07 10:28:35;;;;;;;12.50;7.90;;;22.60;85.70;;;;;;5039187;28;20072;-71
2021/09/07 10:31:03;;;;;;;10.20;7.47;;;22.60;85.60;;;;;;5022621;28;20383;-71
2021/09/07 10:33:32;;;;;;;13.77;8.52;;;22.70;83.60;;;;;;5043334;28;20068;-71
2021/09/07 10:36:10;;;;;;;10.38;7.45;;;22.70;83.70;;;;;;5030696;28;20433;-69
2021/09/07 10:38:40;;;;;;;13.07;7.40;;;22.80;83.70;;;;;;5029876;28;20068;-69
2021/09/07 10:41:05;;;;;;;10.10;7.38;;;22.80;83.20;;;;;;5028471;28;20059;-71
2021/09/07 10:43:51;;;;;;;13.73;7.85;;;22.90;82.10;;;;;;5041719;28;20075;-72
2021/09/07 10:46:36;;;;;;;13.90;8.05;;;22.90;81.50;;;;;;5031146;28;20041;-70
2021/09/07 10:49:19;;;;;;;11.57;7.20;;;22.90;80.80;;;;;;5034309;28;20029;-70
2021/09/07 10:52:20;;;;;;;13.90;8.95;;;23.00;81.70;;;;;;5045516;28;20033;-70
2021/09/07 10:54:47;;;;;;;12.20;8.02;;;23.10;81.40;;;;;;5029978;28;20132;-70
2021/09/07 10:57:32;;;;;;;11.07;6.95;;;23.30;82.00;;;;;;5031981;28;20041;-70
2021/09/07 11:00:02;;;;;;;9.48;6.88;;;23.40;82.80;;;;;;5034900;28;20033;-70
2021/09/07 11:02:40;;;;;;;11.50;7.05;;;23.50;81.50;;;;;;5043025;28;20033;-70
2021/09/07 11:05:08;;;;;;;11.55;6.85;;;23.60;80.30;;;;;;5033479;28;20037;-70
2021/09/07 11:07:41;;;;;;;11.10;6.60;;;23.70;80.00;;;;;;5046980;28;20438;-70
2021/09/07 11:10:19;;;;;;;10.25;6.72;;;23.70;79.60;;;;;;5031238;28;20025;-69
2021/09/07 11:12:54;;;;;;;9.23;6.90;;;23.80;79.60;;;;;;5031588;28;20032;-71
2021/09/07 11:15:23;;;;;;;9.65;6.50;;;23.90;78.90;;;;;;5019447;28;20040;-69
2021/09/07 11:17:57;;;;;;;9.05;6.20;;;23.90;78.40;;;;;;5025327;28;20022;-71
2021/09/07 11:20:30;;;;;;;7.72;5.90;;;24.00;77.60;;;;;;5028336;28;20030;-71
2021/09/07 11:23:00;;;;;;;9.23;6.68;;;24.00;78.00;;;;;;5037450;28;20033;-70
2021/09/07 11:25:26;;;;;;;8.50;6.45;;;24.10;77.80;;;;;;5029042;28;20136;-69
2021/09/07 11:27:59;;;;;;;12.27;6.82;;;24.10;77.00;;;;;;5059608;28;20028;-71
2021/09/07 11:30:40;;;;;;;7.07;5.53;;;24.20;76.20;;;;;;5036109;28;20033;-70
2021/09/07 11:33:10;;;;;;;10.13;6.65;;;24.30;75.00;;;;;;5042060;28;20446;-69
2021/09/07 11:35:47;;;;;;;8.98;5.47;;;24.20;74.90;;;;;;5031866;28;20021;-69
2021/09/07 11:38:20;;;;;;;9.60;5.90;;;24.30;75.20;;;;;;5033351;28;20021;-68
2021/09/07 11:40:49;;;;;;;6.95;5.43;;;24.40;74.60;;;;;;5033339;28;20061;-70
2021/09/07 11:43:45;;;;;;;8.40;5.50;;;24.40;74.80;;;;;;5037448;28;20561;-70
2021/09/07 11:46:11;;;;;;;11.55;5.82;;;24.40;74.50;;;;;;5024969;28;20049;-69
2021/09/07 11:48:38;;;;;;;8.77;6.15;;;24.50;73.10;;;;;;5039795;28;20371;-70
2021/09/07 11:51:05;;;;;;;6.63;5.03;;;24.50;72.80;;;;;;5025482;28;20051;-70
2021/09/07 11:53:31;;;;;;;7.43;4.90;;;24.50;72.20;;;;;;5036027;28;20029;-68
2021/09/07 11:55:57;;;;;;;8.02;5.80;;;24.50;71.70;;;;;;5035233;28;20090;-68
2021/09/07 11:58:42;;;;;;;8.82;5.45;;;24.50;72.00;;;;;;5043202;28;20024;-67
2021/09/07 12:01:17;;;;;;;8.15;5.50;;;24.50;72.50;;;;;;5033990;28;20116;-68
2021/09/07 12:03:49;;;;;;;7.55;5.50;;;24.60;72.50;;;;;;5038166;28;20145;-68
2021/09/07 12:06:28;;;;;;;7.95;5.07;;;24.70;72.00;;;;;;5034415;28;20037;-69
2021/09/07 12:08:53;;;;;;;11.85;5.53;;;24.80;72.70;;;;;;5037103;28;20032;-70
2021/09/07 12:11:22;;;;;;;8.65;5.63;;;24.90;72.20;;;;;;5029088;28;20537;-70
2021/09/07 12:14:11;;;;;;;7.95;5.30;;;24.90;71.00;;;;;;5036648;28;20083;-70
2021/09/07 12:16:49;;;;;;;8.18;5.72;;;24.90;70.80;;;;;;5034846;28;20030;-70
2021/09/07 12:19:27;;;;;;;7.55;5.20;;;24.90;70.90;;;;;;5030072;28;20025;-69
2021/09/07 12:22:20;;;;;;;8.75;5.57;;;24.80;70.00;;;;;;5029834;28;20030;-69
2021/09/07 12:24:59;;;;;;;7.75;5.53;;;24.70;69.80;;;;;;5025668;28;20036;-69
2021/09/07 12:27:27;;;;;;;7.88;5.00;;;24.70;69.40;;;;;;5046775;28;20047;-70
2021/09/07 12:30:06;;;;;;;8.48;5.70;;;24.70;70.30;;;;;;5038282;28;20036;-70
2021/09/07 12:32:42;;;;;;;8.13;5.10;;;24.70;70.30;;;;;;5035442;28;20168;-69
2021/09/07 12:35:08;;;;;;;7.68;5.15;;;24.70;71.40;;;;;;5023659;28;20131;-70
2021/09/07 12:37:33;;;;;;;8.27;6.00;;;24.80;71.10;;;;;;5041604;28;20078;-69
2021/09/07 12:39:59;;;;;;;7.70;5.63;;;24.90;70.40;;;;;;5046740;28;20496;-70
2021/09/07 12:42:24;;;;;;;8.98;5.85;;;25.00;70.50;;;;;;5039897;28;20033;-70
2021/09/07 12:44:50;;;;;;;6.78;5.10;;;25.10;70.00;;;;;;5039524;28;20511;-69